Time;durP1;ratioP1;P1;durP2;ratioP2;P2;SDS_P1;SDS_P2;PMS_P1;PMS_P2;Temp;Humidity;BMP_temperature;BMP_pressure;BME280_temperature;BME280_humidity;BME280_pressure;Samples;Min_cycle;Max_cycle;Signal;HPM_P1;HPM_P2
2023/07/16 00:01:29;;;;;;;8.83;1.83;;;16.90;99.90;;;;;;5136482;27;20475;-71
2023/07/16 00:03:55;;;;;;;8.07;1.80;;;17.00;99.90;;;;;;5118010;27;20130;-71
2023/07/16 00:06:20;;;;;;;8.18;1.98;;;16.90;99.90;;;;;;5136136;27;20134;-71
2023/07/16 00:08:46;;;;;;;7.30;1.40;;;17.00;99.90;;;;;;5118207;27;20062;-71
2023/07/16 00:11:12;;;;;;;12.30;1.80;;;17.00;99.90;;;;;;5135800;27;20043;-71
2023/07/16 00:13:38;;;;;;;9.40;1.73;;;16.90;99.90;;;;;;5117898;27;20086;-71
2023/07/16 00:16:04;;;;;;;10.00;1.53;;;16.90;99.90;;;;;;5117238;27;20101;-70
2023/07/16 00:18:29;;;;;;;8.77;1.90;;;16.90;99.90;;;;;;5135892;27;20043;-70
2023/07/16 00:20:55;;;;;;;7.53;1.70;;;16.80;99.90;;;;;;5135798;27;20276;-70
2023/07/16 00:23:21;;;;;;;8.47;1.47;;;16.80;99.90;;;;;;5117545;27;20047;-69
2023/07/16 00:25:46;;;;;;;11.60;1.57;;;16.70;99.90;;;;;;5135466;27;20624;-70
2023/07/16 00:28:12;;;;;;;9.15;1.88;;;16.70;99.90;;;;;;5117965;27;20046;-71
2023/07/16 00:30:38;;;;;;;11.18;1.60;;;16.60;99.90;;;;;;5134573;27;20372;-70
2023/07/16 00:33:03;;;;;;;4.70;1.52;;;16.60;99.90;;;;;;5117367;27;20474;-70
2023/07/16 00:35:29;;;;;;;8.53;1.40;;;16.60;99.90;;;;;;5117136;27;20043;-71
2023/07/16 00:37:55;;;;;;;8.02;1.58;;;16.50;99.90;;;;;;5117308;27;20046;-70
2023/07/16 00:40:21;;;;;;;7.35;1.70;;;16.50;99.90;;;;;;5135772;27;20528;-71
2023/07/16 00:42:46;;;;;;;8.75;1.40;;;16.40;99.90;;;;;;5117157;27;20080;-72
2023/07/16 00:45:14;;;;;;;10.77;1.60;;;16.40;99.90;;;;;;5135984;27;20147;-71
2023/07/16 00:47:41;;;;;;;7.65;1.75;;;16.40;99.90;;;;;;5135571;27;20085;-72
2023/07/16 00:50:10;;;;;;;10.40;1.80;;;16.30;99.90;;;;;;5117073;27;20567;-72
2023/07/16 00:52:36;;;;;;;7.80;1.65;;;16.40;99.90;;;;;;5117057;27;20063;-71
2023/07/16 00:55:02;;;;;;;7.68;1.70;;;16.30;99.90;;;;;;5151219;27;20047;-70
2023/07/16 00:57:28;;;;;;;9.43;1.73;;;16.30;99.90;;;;;;5100115;27;20043;-71
2023/07/16 00:59:54;;;;;;;7.47;1.60;;;16.30;99.90;;;;;;5135174;27;20140;-71
2023/07/16 01:02:19;;;;;;;9.75;1.83;;;16.30;99.90;;;;;;5134771;27;20082;-71
2023/07/16 01:04:45;;;;;;;10.52;1.90;;;16.30;99.90;;;;;;5116891;27;20082;-72
2023/07/16 01:07:13;;;;;;;9.57;2.03;;;16.30;99.90;;;;;;5115892;27;20478;-71
2023/07/16 01:09:42;;;;;;;12.57;2.40;;;16.20;99.90;;;;;;5116589;27;20051;-72
2023/07/16 01:12:09;;;;;;;9.07;2.20;;;16.20;99.90;;;;;;5116874;27;20051;-71
2023/07/16 01:14:35;;;;;;;6.13;1.83;;;16.20;99.90;;;;;;5116610;27;20047;-71
2023/07/16 01:17:06;;;;;;;9.57;2.33;;;16.20;99.90;;;;;;5116456;27;20083;-70
2023/07/16 01:19:33;;;;;;;7.40;1.85;;;16.30;99.90;;;;;;5117000;27;20050;-71
2023/07/16 01:22:17;;;;;;;12.43;2.38;;;16.30;99.90;;;;;;5134969;27;20051;-72
2023/07/16 01:25:01;;;;;;;8.18;1.90;;;16.30;99.90;;;;;;5116125;28;20054;-70
2023/07/16 01:27:38;;;;;;;10.07;2.42;;;16.40;99.90;;;;;;5134827;27;20043;-70
2023/07/16 01:30:04;;;;;;;;;;;16.40;99.90;;;;;;5100024;27;20538;-72
2023/07/16 01:32:34;;;;;;;8.55;2.38;;;16.40;99.90;;;;;;5116462;27;19919;-71
2023/07/16 01:35:00;;;;;;;7.40;2.00;;;16.50;99.90;;;;;;5151101;27;20054;-72
2023/07/16 01:37:26;;;;;;;9.60;2.00;;;16.50;99.90;;;;;;5116232;28;20103;-70
2023/07/16 01:39:52;;;;;;;7.47;1.90;;;16.50;99.90;;;;;;5133700;27;20097;-72
2023/07/16 01:42:17;;;;;;;11.10;2.15;;;16.60;99.90;;;;;;5115831;27;20398;-70
2023/07/16 01:44:43;;;;;;;11.90;2.38;;;16.70;99.90;;;;;;5150703;27;20065;-69
2023/07/16 01:47:17;;;;;;;8.57;2.50;;;16.70;99.90;;;;;;5116376;28;20047;-70
2023/07/16 01:49:43;;;;;;;8.20;2.00;;;16.80;99.90;;;;;;5117192;28;20058;-68
2023/07/16 01:52:09;;;;;;;13.35;2.28;;;16.80;99.90;;;;;;5116099;28;20043;-70
2023/07/16 01:54:36;;;;;;;11.15;2.40;;;16.90;99.90;;;;;;5115983;28;20066;-69
2023/07/16 01:57:02;;;;;;;8.70;1.98;;;16.80;99.90;;;;;;5134259;28;20043;-68
2023/07/16 01:59:28;;;;;;;6.60;2.20;;;16.70;99.90;;;;;;5099301;28;20054;-69
2023/07/16 02:01:53;;;;;;;8.70;1.85;;;16.70;99.90;;;;;;5115759;28;20047;-68
2023/07/16 02:04:20;;;;;;;8.10;2.33;;;16.70;99.90;;;;;;5134238;28;20050;-71
2023/07/16 02:06:47;;;;;;;11.38;2.67;;;16.60;99.90;;;;;;5116196;28;20043;-68
2023/07/16 02:09:13;;;;;;;9.20;2.40;;;16.60;99.90;;;;;;5116123;28;20047;-71
2023/07/16 02:11:39;;;;;;;9.15;1.92;;;16.50;99.90;;;;;;5116264;28;20428;-68
2023/07/16 02:14:05;;;;;;;11.07;2.17;;;16.50;99.90;;;;;;5150254;27;20045;-70
2023/07/16 02:16:31;;;;;;;11.23;2.30;;;16.50;99.90;;;;;;5116673;28;20391;-70
2023/07/16 02:18:56;;;;;;;11.13;2.33;;;16.40;99.90;;;;;;5152862;27;20395;-68
2023/07/16 02:21:22;;;;;;;11.40;2.00;;;16.30;99.90;;;;;;5138218;27;20137;-69
2023/07/16 02:23:48;;;;;;;10.18;2.42;;;16.30;99.90;;;;;;5120266;27;20484;-71
2023/07/16 02:26:14;;;;;;;10.65;2.05;;;16.20;99.90;;;;;;5119851;27;20055;-71
2023/07/16 02:28:39;;;;;;;9.77;2.67;;;16.20;99.90;;;;;;5138724;27;20043;-70
2023/07/16 02:31:05;;;;;;;6.85;2.20;;;16.20;99.90;;;;;;5138101;27;20039;-72
2023/07/16 02:33:31;;;;;;;7.57;2.07;;;16.20;99.90;;;;;;5119915;27;20044;-71
2023/07/16 02:35:56;;;;;;;10.48;2.17;;;16.20;99.90;;;;;;5103743;27;20054;-70
2023/07/16 02:38:22;;;;;;;8.82;1.92;;;16.20;99.90;;;;;;5102848;27;20046;-70
2023/07/16 02:40:48;;;;;;;11.27;2.27;;;16.10;99.90;;;;;;5138186;27;20042;-69
2023/07/16 02:43:14;;;;;;;11.30;2.50;;;16.20;99.90;;;;;;5138349;27;20039;-69
2023/07/16 02:45:41;;;;;;;17.50;3.00;;;16.20;99.90;;;;;;5069288;27;20525;-68
2023/07/16 02:48:07;;;;;;;11.17;2.80;;;16.30;99.90;;;;;;5119484;27;20129;-69
2023/07/16 02:50:37;;;;;;;10.85;2.75;;;16.30;99.90;;;;;;5136371;27;20768;-69
2023/07/16 02:53:07;;;;;;;11.95;2.60;;;16.30;99.90;;;;;;5137313;27;20493;-69
2023/07/16 02:55:34;;;;;;;8.68;2.05;;;16.30;99.90;;;;;;5102055;27;20104;-69
2023/07/16 02:58:04;;;;;;;10.18;2.55;;;16.30;99.90;;;;;;5138094;27;20050;-70
2023/07/16 03:00:31;;;;;;;8.07;2.28;;;16.20;99.90;;;;;;5103075;27;20043;-69
2023/07/16 03:02:58;;;;;;;8.55;2.80;;;16.20;99.90;;;;;;5137403;27;20095;-70
2023/07/16 03:05:24;;;;;;;7.38;1.98;;;16.10;99.90;;;;;;5120007;27;20086;-69
2023/07/16 03:07:50;;;;;;;8.57;2.50;;;16.10;99.90;;;;;;5103112;27;20493;-71
2023/07/16 03:10:16;;;;;;;8.45;2.20;;;16.10;99.90;;;;;;5137240;27;20130;-69
2023/07/16 03:12:42;;;;;;;10.67;2.67;;;16.00;99.90;;;;;;5118846;27;20434;-68
2023/07/16 03:15:08;;;;;;;11.15;2.72;;;16.10;99.90;;;;;;5101940;27;20100;-68
2023/07/16 03:17:34;;;;;;;12.02;2.53;;;16.00;99.90;;;;;;5101911;27;20095;-71
2023/07/16 03:20:00;;;;;;;10.52;2.55;;;16.00;99.90;;;;;;5119319;27;20048;-69
2023/07/16 03:22:25;;;;;;;9.38;2.67;;;16.00;99.90;;;;;;5136960;27;20107;-70
2023/07/16 03:24:51;;;;;;;8.75;2.28;;;15.90;99.90;;;;;;5137526;27;20043;-70
2023/07/16 03:27:17;;;;;;;8.27;2.45;;;16.00;99.90;;;;;;5136937;27;20433;-72
2023/07/16 03:29:42;;;;;;;6.90;2.00;;;16.00;99.90;;;;;;5118064;27;20135;-71
2023/07/16 03:32:08;;;;;;;9.88;2.42;;;15.90;99.90;;;;;;5101632;27;20035;-70
2023/07/16 03:34:34;;;;;;;12.53;2.40;;;16.00;99.90;;;;;;5119007;27;20058;-69
2023/07/16 03:37:00;;;;;;;11.00;2.47;;;15.90;99.90;;;;;;5118687;27;20050;-69
2023/07/16 03:39:25;;;;;;;12.40;2.37;;;15.90;99.90;;;;;;5068063;27;20047;-69
2023/07/16 03:41:51;;;;;;;11.30;2.30;;;15.90;99.90;;;;;;5102516;27;20050;-69
2023/07/16 03:44:17;;;;;;;11.70;2.53;;;15.90;99.90;;;;;;5118318;27;20525;-71
2023/07/16 03:46:42;;;;;;;11.02;2.30;;;15.90;99.90;;;;;;5118025;27;20146;-70
2023/07/16 03:49:08;;;;;;;12.55;2.75;;;15.90;99.90;;;;;;5102395;27;20100;-70
2023/07/16 03:51:34;;;;;;;15.45;2.78;;;15.90;99.90;;;;;;5118456;27;20039;-69
2023/07/16 03:54:00;;;;;;;10.93;3.00;;;15.90;99.90;;;;;;5118619;27;20091;-70
2023/07/16 03:56:26;;;;;;;13.52;2.55;;;15.90;99.90;;;;;;5118210;27;20039;-69
2023/07/16 03:58:52;;;;;;;9.07;2.67;;;15.90;99.90;;;;;;5101147;27;20455;-70
2023/07/16 04:01:18;;;;;;;11.27;2.63;;;15.90;99.90;;;;;;5118046;27;20548;-70
2023/07/16 04:03:43;;;;;;;11.70;2.97;;;15.90;99.90;;;;;;5136292;27;20058;-69
2023/07/16 04:06:10;;;;;;;10.27;2.63;;;15.90;99.90;;;;;;5136298;27;20044;-70
2023/07/16 04:08:36;;;;;;;11.38;2.75;;;15.90;99.90;;;;;;5136080;27;20131;-70
2023/07/16 04:11:05;;;;;;;10.70;2.70;;;15.90;99.90;;;;;;5136253;27;20046;-69
2023/07/16 04:13:31;;;;;;;10.57;2.67;;;16.00;99.90;;;;;;5118678;27;20043;-68
2023/07/16 04:15:58;;;;;;;11.25;2.75;;;16.00;99.90;;;;;;5118167;27;20439;-70
2023/07/16 04:18:24;;;;;;;11.32;2.85;;;16.00;99.90;;;;;;5135895;27;20039;-70
2023/07/16 04:20:50;;;;;;;13.32;2.70;;;16.00;99.90;;;;;;5135948;27;20047;-69
2023/07/16 04:23:16;;;;;;;15.13;2.83;;;16.00;99.90;;;;;;5118359;27;20055;-70
2023/07/16 04:25:41;;;;;;;13.43;2.38;;;16.10;99.90;;;;;;5136410;27;20086;-70
2023/07/16 04:28:07;;;;;;;12.67;2.70;;;16.10;99.90;;;;;;5118199;27;20051;-70
2023/07/16 04:30:33;;;;;;;10.65;2.13;;;16.10;99.90;;;;;;5136323;27;20042;-71
2023/07/16 04:32:59;;;;;;;9.18;2.40;;;16.10;99.90;;;;;;5117316;27;20082;-70
2023/07/16 04:35:24;;;;;;;8.90;2.15;;;16.20;99.90;;;;;;5135589;27;20047;-70
2023/07/16 04:37:50;;;;;;;11.50;3.03;;;16.20;99.90;;;;;;5136100;27;20126;-69
2023/07/16 04:40:16;;;;;;;12.88;3.00;;;16.30;99.90;;;;;;5136144;27;20047;-68
2023/07/16 04:42:42;;;;;;;12.63;2.72;;;16.30;99.90;;;;;;5151966;27;20092;-69
2023/07/16 04:45:08;;;;;;;8.30;2.28;;;16.40;99.90;;;;;;5116935;27;20058;-71
2023/07/16 04:47:33;;;;;;;8.60;2.35;;;16.40;99.90;;;;;;5117081;27;20051;-69
2023/07/16 04:49:59;;;;;;;9.57;2.60;;;16.40;99.90;;;;;;5136009;27;20035;-69
2023/07/16 04:52:25;;;;;;;13.37;2.80;;;16.40;99.90;;;;;;5117272;27;20035;-69
2023/07/16 04:54:51;;;;;;;6.60;2.13;;;16.50;99.90;;;;;;5135404;27;20043;-68
2023/07/16 04:57:17;;;;;;;10.13;2.40;;;16.50;99.90;;;;;;5100188;27;20047;-68
2023/07/16 04:59:42;;;;;;;12.23;2.47;;;16.50;99.90;;;;;;5116968;27;20050;-70
2023/07/16 05:02:08;;;;;;;9.77;2.27;;;16.50;99.90;;;;;;5135252;27;20092;-68
2023/07/16 05:04:37;;;;;;;13.38;2.40;;;16.60;99.90;;;;;;5117072;27;20055;-71
2023/07/16 05:07:03;;;;;;;10.38;2.47;;;16.60;99.90;;;;;;5133972;27;20050;-70
2023/07/16 05:09:29;;;;;;;10.68;2.38;;;16.60;99.90;;;;;;5117034;27;20043;-69
2023/07/16 05:11:55;;;;;;;8.77;2.03;;;16.70;99.90;;;;;;5135317;27;20053;-70
2023/07/16 05:14:21;;;;;;;8.90;2.33;;;16.70;99.90;;;;;;5116717;27;20464;-70
2023/07/16 05:16:46;;;;;;;10.07;2.10;;;16.70;99.90;;;;;;5116487;27;20372;-69
2023/07/16 05:19:12;;;;;;;10.35;2.00;;;16.70;99.90;;;;;;5116688;27;20100;-69
2023/07/16 05:21:38;;;;;;;10.68;2.40;;;16.80;99.90;;;;;;5135046;27;20039;-69
2023/07/16 05:24:04;;;;;;;10.13;2.30;;;16.90;99.90;;;;;;5116440;27;20047;-70
2023/07/16 05:26:30;;;;;;;6.93;2.22;;;16.90;99.90;;;;;;5115941;27;20494;-71
2023/07/16 05:28:56;;;;;;;6.20;1.90;;;17.00;99.90;;;;;;5134622;27;20057;-71
2023/07/16 05:31:22;;;;;;;9.73;2.40;;;17.00;99.90;;;;;;5150737;27;20047;-69
2023/07/16 05:33:48;;;;;;;6.75;2.08;;;17.00;99.90;;;;;;5133113;27;20046;-71
2023/07/16 05:36:13;;;;;;;7.85;2.60;;;17.00;99.90;;;;;;5100246;27;20090;-69
2023/07/16 05:38:39;;;;;;;8.68;2.60;;;17.00;99.90;;;;;;5116310;27;20046;-70
2023/07/16 05:41:05;;;;;;;11.17;2.83;;;17.10;99.90;;;;;;5134576;27;20491;-70
2023/07/16 05:43:31;;;;;;;10.98;2.65;;;17.10;99.90;;;;;;5150480;27;20039;-68
2023/07/16 05:45:57;;;;;;;7.18;2.40;;;17.10;99.90;;;;;;5115823;28;20059;-70
2023/07/16 05:48:24;;;;;;;11.23;2.67;;;17.20;99.90;;;;;;5134548;27;20486;-70
2023/07/16 05:50:50;;;;;;;;;;;17.20;99.90;;;;;;5134692;28;20039;-70
2023/07/16 05:53:16;;;;;;;8.33;2.30;;;17.30;99.90;;;;;;5098669;28;20022;-68
2023/07/16 05:55:41;;;;;;;12.07;2.80;;;17.30;99.90;;;;;;5099395;28;20341;-68
2023/07/16 05:58:08;;;;;;;7.78;2.80;;;17.30;99.90;;;;;;5082286;28;20547;-71
2023/07/16 06:00:35;;;;;;;14.00;3.60;;;17.30;99.90;;;;;;5099180;28;20126;-71
2023/07/16 06:03:04;;;;;;;12.25;3.33;;;17.40;99.90;;;;;;5134300;28;20057;-69
2023/07/16 06:05:33;;;;;;;13.77;3.17;;;17.40;99.90;;;;;;5115897;28;20120;-69
2023/07/16 06:08:00;;;;;;;11.82;2.80;;;17.40;99.90;;;;;;5116083;28;20372;-69
2023/07/16 06:10:26;;;;;;;10.35;2.70;;;17.50;99.90;;;;;;5115872;28;20489;-69
2023/07/16 06:12:51;;;;;;;8.68;2.83;;;17.50;99.90;;;;;;5115865;28;20085;-71
2023/07/16 06:15:17;;;;;;;9.77;3.07;;;17.50;99.90;;;;;;5134210;28;20093;-70
2023/07/16 06:17:43;;;;;;;11.10;3.08;;;17.50;99.90;;;;;;5133958;28;20035;-70
2023/07/16 06:20:09;;;;;;;10.50;2.83;;;17.50;99.90;;;;;;5133023;27;20047;-68
2023/07/16 06:22:35;;;;;;;8.68;2.90;;;17.50;99.90;;;;;;5116326;28;20046;-68
2023/07/16 06:25:01;;;;;;;11.63;3.00;;;17.60;99.90;;;;;;5099769;28;20047;-70
2023/07/16 06:27:27;;;;;;;8.43;2.50;;;17.60;99.90;;;;;;5082210;28;20053;-68
2023/07/16 06:29:52;;;;;;;7.13;2.50;;;17.70;99.90;;;;;;5099174;28;20050;-69
2023/07/16 06:32:18;;;;;;;8.87;2.93;;;17.70;99.90;;;;;;5133969;28;20096;-71
2023/07/16 06:34:44;;;;;;;6.87;2.53;;;17.80;99.90;;;;;;5115552;28;20103;-69
2023/07/16 06:37:10;;;;;;;13.20;3.00;;;17.90;99.90;;;;;;5133860;28;20045;-71
2023/07/16 06:39:35;;;;;;;10.60;2.77;;;17.90;99.90;;;;;;5133078;28;20082;-71
2023/07/16 06:42:01;;;;;;;11.80;3.70;;;18.00;99.90;;;;;;5135025;28;20047;-70
2023/07/16 06:44:27;;;;;;;10.50;3.10;;;18.10;99.90;;;;;;5133977;28;20508;-72
2023/07/16 06:46:53;;;;;;;9.75;2.75;;;18.10;99.90;;;;;;5115682;28;20051;-70
2023/07/16 06:49:19;;;;;;;13.97;3.30;;;18.20;99.90;;;;;;5133949;28;20125;-70
2023/07/16 06:51:45;;;;;;;11.63;2.78;;;18.30;99.90;;;;;;5134109;28;20047;-69
2023/07/16 06:54:10;;;;;;;7.73;2.67;;;18.40;99.90;;;;;;5132692;28;20095;-70
2023/07/16 06:56:36;;;;;;;10.73;3.17;;;18.40;99.90;;;;;;5133829;28;20478;-73
2023/07/16 06:59:02;;;;;;;11.77;2.70;;;18.50;99.90;;;;;;5098356;28;20039;-69
2023/07/16 07:01:31;;;;;;;9.35;3.10;;;18.50;99.90;;;;;;5133448;28;20042;-72
2023/07/16 07:03:56;;;;;;;9.77;2.90;;;18.60;99.90;;;;;;5115384;28;20043;-72
2023/07/16 07:06:22;;;;;;;12.80;3.70;;;18.50;99.90;;;;;;5136847;27;20118;-70
2023/07/16 07:08:48;;;;;;;9.43;3.27;;;18.70;99.90;;;;;;5120090;27;20451;-72
2023/07/16 07:11:13;;;;;;;13.90;3.00;;;18.70;99.90;;;;;;5153721;27;20112;-68
2023/07/16 07:13:39;;;;;;;10.97;3.50;;;18.80;99.90;;;;;;5137234;27;20051;-72
2023/07/16 07:16:05;;;;;;;7.53;2.57;;;18.80;99.90;;;;;;5136971;27;20129;-71
2023/07/16 07:18:31;;;;;;;13.20;3.73;;;18.80;99.90;;;;;;5118817;27;20051;-71
2023/07/16 07:20:56;;;;;;;10.37;3.03;;;18.80;99.90;;;;;;5137109;27;20411;-69
2023/07/16 07:23:22;;;;;;;8.20;2.23;;;18.90;99.90;;;;;;5137184;27;20448;-70
2023/07/16 07:25:50;;;;;;;12.33;2.97;;;18.90;99.90;;;;;;5084924;27;20116;-70
2023/07/16 07:28:17;;;;;;;9.40;3.22;;;19.00;99.90;;;;;;5136999;27;20054;-70
2023/07/16 07:30:43;;;;;;;7.22;2.50;;;19.00;99.90;;;;;;5118822;27;20050;-71
2023/07/16 07:33:09;;;;;;;10.32;2.58;;;19.10;99.90;;;;;;5136857;27;20403;-67
2023/07/16 07:35:35;;;;;;;11.27;2.93;;;19.20;99.90;;;;;;5118791;27;20058;-71
2023/07/16 07:38:00;;;;;;;7.87;3.00;;;19.20;99.90;;;;;;5118769;27;20047;-69
2023/07/16 07:40:26;;;;;;;8.57;2.60;;;19.20;99.90;;;;;;5137430;27;20046;-69
2023/07/16 07:42:52;;;;;;;12.38;3.35;;;19.30;99.90;;;;;;5084577;27;20081;-70
2023/07/16 07:45:18;;;;;;;7.50;3.03;;;19.40;99.90;;;;;;5136283;27;20135;-70
2023/07/16 07:47:44;;;;;;;13.03;3.00;;;19.40;99.90;;;;;;5118724;27;20039;-69
2023/07/16 07:50:10;;;;;;;12.33;3.23;;;19.50;99.90;;;;;;5118176;27;20055;-69
2023/07/16 07:52:36;;;;;;;9.00;2.93;;;19.50;99.90;;;;;;5152726;27;20043;-69
2023/07/16 07:55:02;;;;;;;11.40;2.90;;;19.60;99.90;;;;;;5117559;27;20629;-70
2023/07/16 07:57:27;;;;;;;8.25;2.80;;;19.70;99.90;;;;;;5136078;27;20062;-70
2023/07/16 07:59:57;;;;;;;10.93;3.17;;;19.80;99.90;;;;;;5117817;27;20047;-70
2023/07/16 08:02:27;;;;;;;9.27;3.08;;;19.80;99.90;;;;;;5136471;27;20364;-70
2023/07/16 08:04:54;;;;;;;7.30;2.38;;;19.80;99.90;;;;;;5118789;27;20093;-71
2023/07/16 08:07:20;;;;;;;9.65;2.15;;;20.00;99.90;;;;;;5135940;27;20054;-70
2023/07/16 08:09:46;;;;;;;8.27;2.90;;;20.20;99.90;;;;;;5136122;27;20047;-71
2023/07/16 08:12:13;;;;;;;11.35;3.08;;;20.20;99.90;;;;;;5135985;27;20273;-70
2023/07/16 08:14:40;;;;;;;9.52;2.80;;;20.40;99.90;;;;;;5135922;27;20081;-70
2023/07/16 08:17:05;;;;;;;9.25;2.92;;;20.60;99.90;;;;;;5117888;27;20051;-72
2023/07/16 08:19:31;;;;;;;14.13;3.07;;;20.70;99.90;;;;;;5117658;27;20051;-69
2023/07/16 08:21:57;;;;;;;11.40;2.87;;;;;;;;;;5118196;27;20176;-71
2023/07/16 08:24:25;;;;;;;10.27;3.03;;;;;;;;;;5117717;27;20051;-72
2023/07/16 08:26:51;;;;;;;10.80;3.10;;;;;;;;;;5136444;27;20039;-71
2023/07/16 08:29:17;;;;;;;12.50;3.08;;;;;;;;;;5117478;27;20060;-68
2023/07/16 08:31:43;;;;;;;8.25;2.72;;;;;;;;;;5135765;27;20047;-69
2023/07/16 08:34:09;;;;;;;10.93;3.15;;;;;;;;;;5135515;27;20069;-70
2023/07/16 08:36:37;;;;;;;9.50;3.65;;;;;;;;;;5117152;27;20047;-72
2023/07/16 08:39:03;;;;;;;8.50;3.05;;;;;;;;;;5099953;27;20043;-70
2023/07/16 08:41:30;;;;;;;9.40;3.15;;;;;;;;;;5135444;27;20039;-69
2023/07/16 08:43:56;;;;;;;12.45;3.83;;;;;;;;;;5135363;27;20047;-69
2023/07/16 08:46:23;;;;;;;12.38;3.38;;;;;;;;;;5134866;27;20055;-75
2023/07/16 08:48:49;;;;;;;8.85;3.10;;;;;;;;;;5135305;27;20130;-69
2023/07/16 08:51:16;;;;;;;11.48;3.60;;;;;;;;;;5135273;27;20398;-69
2023/07/16 08:53:42;;;;;;;12.80;2.85;;;;;;;;;;5117122;27;20112;-69
2023/07/16 08:56:09;;;;;;;9.80;2.88;;;;;;;;;;5100377;27;20135;-70
2023/07/16 08:58:37;;;;;;;11.25;3.25;;;;;;;;;;5116955;27;20074;-70
2023/07/16 09:01:03;;;;;;;7.65;2.97;;;;;;;;;;5116654;27;20546;-72
2023/07/16 09:03:29;;;;;;;10.00;3.13;;;;;;;;;;5116714;27;20467;-70
2023/07/16 09:05:55;;;;;;;12.40;3.13;;;;;;;;;;5116747;27;20486;-71
2023/07/16 09:08:23;;;;;;;11.38;3.15;;;;;;;;;;5099580;27;20547;-74
2023/07/16 09:10:56;;;;;;;11.00;3.47;;;;;;;;;;5100777;27;20100;-71
2023/07/16 09:13:27;;;;;;;7.40;2.78;;;;;;;;;;5099766;27;20190;-70
2023/07/16 09:15:54;;;;;;;9.60;2.95;;;;;;;;;;5100083;27;20053;-71
2023/07/16 09:18:24;;;;;;;9.48;3.45;;;;;;;;;;5134725;27;20046;-71
2023/07/16 09:21:02;;;;;;;16.30;3.10;;;;;;;;;;5116898;27;20047;-70
2023/07/16 09:23:30;;;;;;;10.95;3.50;;;;;;;;;;5116726;27;20117;-70
2023/07/16 09:25:57;;;;;;;8.68;3.20;;;;;;;;;;5116821;27;20047;-72
2023/07/16 09:28:23;;;;;;;11.07;3.28;;;;;;;;;;5134004;27;20126;-70
2023/07/16 09:30:50;;;;;;;9.45;3.03;;;;;;;;;;5134678;27;20058;-72
2023/07/16 09:33:17;;;;;;;12.27;3.80;;;;;;;;;;5116086;27;20090;-71
2023/07/16 09:35:43;;;;;;;8.73;3.38;;;;;;;;;;5134424;27;20055;-70
2023/07/16 09:38:10;;;;;;;11.40;3.88;;;;;;;;;;5116053;28;20047;-71
2023/07/16 09:40:37;;;;;;;8.90;3.83;;;;;;;;;;5116978;27;20416;-70
2023/07/16 09:43:04;;;;;;;8.40;3.58;;;;;;;;;;5116830;27;20058;-72
2023/07/16 09:45:30;;;;;;;9.88;3.38;;;;;;;;;;5134356;27;20061;-71
2023/07/16 09:47:56;;;;;;;12.70;3.47;;;;;;;;;;5116361;28;20133;-70
2023/07/16 09:50:25;;;;;;;10.68;3.15;;;;;;;;;;5134381;28;20135;-71
2023/07/16 09:52:51;;;;;;;12.38;2.85;;;;;;;;;;5116200;28;20131;-74
2023/07/16 09:55:17;;;;;;;;;;;;;;;;;;5134802;28;20055;-71
2023/07/16 09:57:44;;;;;;;12.40;3.70;;;;;;;;;;5116154;28;20051;-71
2023/07/16 10:00:14;;;;;;;8.23;2.88;;;;;;;;;;5135057;28;20468;-72
2023/07/16 10:02:41;;;;;;;11.80;3.53;;;;;;;;;;5115753;28;20047;-70
2023/07/16 10:05:20;;;;;;;8.77;3.28;;;;;;;;;;5134408;28;20051;-72
2023/07/16 10:07:59;;;;;;;11.50;3.78;;;;;;;;;;5134474;28;20061;-69
2023/07/16 10:10:43;;;;;;;12.18;3.75;;;;;;;;;;5134162;28;20134;-71
2023/07/16 10:13:11;;;;;;;7.88;3.17;;;;;;;;;;5116165;28;20069;-71
2023/07/16 10:15:37;;;;;;;10.13;3.75;;;;;;;;;;5134445;28;20491;-68
2023/07/16 10:18:03;;;;;;;10.40;3.35;;;;;;;;;;5099841;28;20088;-71
2023/07/16 10:20:34;;;;;;;10.10;3.55;;;;;;;;;;5134801;28;20044;-71
2023/07/16 10:23:12;;;;;;;10.13;3.58;;;;;;;;;;5134259;28;20126;-71
2023/07/16 10:25:38;;;;;;;11.38;3.45;;;;;;;;;;5134242;28;20050;-72
2023/07/16 10:28:04;;;;;;;10.48;4.10;;;;;;;;;;5115861;28;20039;-73
2023/07/16 10:30:31;;;;;;;9.48;3.30;;;;;;;;;;5099302;28;20051;-72
2023/07/16 10:32:57;;;;;;;12.60;2.83;;;;;;;;;;5116129;28;20242;-70
2023/07/16 10:35:23;;;;;;;7.38;2.65;;;;;;;;;;5116258;28;20051;-70
2023/07/16 10:37:49;;;;;;;9.23;3.03;;;;;;;;;;5115999;28;20491;-69
2023/07/16 10:40:15;;;;;;;9.73;2.53;;;;;;;;;;5136980;27;20092;-74
2023/07/16 10:42:51;;;;;;;13.95;2.80;;;;;;;;;;5119949;27;20053;-71
2023/07/16 10:45:17;;;;;;;9.45;2.70;;;;;;;;;;5119923;27;20087;-73
2023/07/16 10:47:53;;;;;;;10.65;3.00;;;;;;;;;;5119709;27;20490;-74
2023/07/16 10:50:22;;;;;;;11.70;4.05;;;;;;;;;;5120411;27;20122;-74
2023/07/16 10:52:53;;;;;;;8.00;3.15;;;;;;;;;;5102881;27;20051;-74
2023/07/16 10:55:19;;;;;;;12.13;3.58;;;;;;;;;;5137755;27;20146;-74
2023/07/16 10:57:48;;;;;;;9.77;3.00;;;;;;;;;;5119445;27;20437;-70
2023/07/16 11:00:15;;;;;;;8.70;3.58;;;;;;;;;;5138061;27;20060;-74
2023/07/16 11:02:43;;;;;;;;;;;;;;;;;;5137901;27;20056;-72
2023/07/16 11:05:12;;;;;;;18.05;3.50;;;;;;;;;;5137726;27;20396;-70
2023/07/16 11:07:38;;;;;;;9.20;3.40;;;;;;;;;;5119111;27;20039;-73
2023/07/16 11:10:05;;;;;;;10.52;3.75;;;;;;;;;;5119160;27;20073;-71
2023/07/16 11:12:31;;;;;;;10.50;3.95;;;;;;;;;;5137808;27;20366;-71
2023/07/16 11:14:57;;;;;;;12.13;3.67;;;;;;;;;;5137194;27;20134;-73
2023/07/16 11:17:24;;;;;;;11.65;3.78;;;;;;;;;;5136228;27;20043;-72
2023/07/16 11:19:51;;;;;;;9.75;3.35;;;;;;;;;;5118714;27;20444;-69
2023/07/16 11:22:18;;;;;;;11.82;3.35;;;;;;;;;;5118954;27;20047;-74
2023/07/16 11:24:48;;;;;;;13.45;3.80;;;;;;;;;;5136965;27;20043;-71
2023/07/16 11:27:15;;;;;;;8.55;3.03;;;;;;;;;;5102008;27;20043;-72
2023/07/16 11:29:45;;;;;;;7.80;3.08;;;;;;;;;;5101735;27;20058;-74
2023/07/16 11:32:12;;;;;;;10.57;3.10;;;;;;;;;;5118735;27;20055;-73
2023/07/16 11:34:38;;;;;;;6.35;2.47;;;;;;;;;;5101630;27;20046;-71
2023/07/16 11:37:11;;;;;;;8.30;3.17;;;;;;;;;;5136443;27;20072;-71
2023/07/16 11:39:37;;;;;;;9.25;3.50;;;;;;;;;;5101537;27;20058;-73
2023/07/16 11:42:04;;;;;;;9.55;3.10;;;;;;;;;;5101540;27;20051;-72
2023/07/16 11:44:34;;;;;;;9.40;2.97;;;;;;;;;;5101698;27;20078;-71
2023/07/16 11:47:01;;;;;;;11.77;3.03;;;;;;;;;;5136661;27;20051;-72
2023/07/16 11:49:27;;;;;;;10.48;3.40;;;;;;;;;;5118436;27;20058;-73
2023/07/16 11:51:53;;;;;;;10.05;3.65;;;;;;;;;;5100592;27;20070;-77
2023/07/16 11:54:19;;;;;;;6.75;2.78;;;;;;;;;;5118285;27;20086;-71
2023/07/16 11:56:47;;;;;;;7.93;2.85;;;;;;;;;;5118106;27;20101;-70
2023/07/16 11:59:13;;;;;;;9.43;3.35;;;;;;;;;;5101341;27;20047;-71
2023/07/16 12:01:39;;;;;;;10.10;3.13;;;;;;;;;;5117903;27;20043;-72
2023/07/16 12:04:05;;;;;;;8.10;3.05;;;;;;;;;;5136638;27;20039;-71
2023/07/16 12:06:31;;;;;;;11.60;3.20;;;;;;;;;;5101090;27;20050;-73
2023/07/16 12:08:57;;;;;;;10.85;3.05;;;;;;;;;;5136126;27;20138;-73
2023/07/16 12:11:24;;;;;;;11.60;3.03;;;;;;;;;;5136142;27;20047;-75
2023/07/16 12:13:50;;;;;;;11.63;3.70;;;;;;;;;;5117770;27;20123;-73
2023/07/16 12:16:16;;;;;;;10.00;3.20;;;;;;;;;;5135567;27;20047;-70
2023/07/16 12:18:42;;;;;;;8.93;3.28;;;;;;;;;;5100854;27;20142;-72
2023/07/16 12:21:08;;;;;;;10.68;3.50;;;;;;;;;;5100999;27;20394;-70
2023/07/16 12:23:34;;;;;;;10.13;3.20;;;;;;;;;;5118339;27;20039;-69
2023/07/16 12:26:00;;;;;;;9.07;3.00;;;;;;;;;;5117555;27;20043;-71
2023/07/16 12:28:26;;;;;;;10.43;3.08;;;;;;;;;;5117753;27;20482;-70
2023/07/16 12:30:53;;;;;;;9.50;2.88;;;;;;;;;;5117606;27;20513;-72
2023/07/16 12:33:20;;;;;;;10.98;4.10;;;;;;;;;;5100822;27;20157;-71
2023/07/16 12:35:47;;;;;;;10.30;3.65;;;;;;;;;;5100561;27;20078;-73
2023/07/16 12:38:13;;;;;;;8.93;3.22;;;;;;;;;;5135444;27;20083;-72
2023/07/16 12:40:40;;;;;;;10.57;3.25;;;;;;;;;;5135535;27;20042;-73
2023/07/16 12:43:07;;;;;;;8.48;3.17;;;;;;;;;;5135456;27;20054;-72
2023/07/16 12:45:33;;;;;;;7.53;2.65;;;;;;;;;;5116693;27;20061;-69
2023/07/16 12:47:59;;;;;;;9.18;3.20;;;;;;;;;;5117012;27;20047;-73
2023/07/16 12:50:27;;;;;;;9.23;3.22;;;;;;;;;;5117397;27;20058;-73
2023/07/16 12:52:53;;;;;;;9.77;3.60;;;;;;;;;;5100454;27;20039;-72
2023/07/16 12:55:19;;;;;;;7.45;3.25;;;;;;;;;;5135472;27;20098;-72
2023/07/16 12:57:46;;;;;;;9.57;3.22;;;;;;;;;;5135065;27;20043;-72
2023/07/16 13:00:12;;;;;;;8.98;2.83;;;;;;;;;;5135666;27;20163;-73
2023/07/16 13:02:39;;;;;;;9.93;2.90;;;;;;;;;;5134927;27;20047;-72
2023/07/16 13:05:05;;;;;;;;;;;;;;;;;;5117095;27;20475;-71
2023/07/16 13:07:31;;;;;;;10.50;2.78;;;;;;;;;;5135542;27;19920;-77
2023/07/16 13:09:58;;;;;;;7.88;2.38;;;;;;;;;;5135244;27;20387;-70
2023/07/16 13:12:24;;;;;;;7.50;2.95;;;;;;;;;;5134891;27;20047;-73
2023/07/16 13:14:50;;;;;;;5.78;1.83;;;;;;;;;;5135125;27;20489;-70
2023/07/16 13:17:17;;;;;;;8.82;2.83;;;;;;;;;;5116576;27;20057;-73
2023/07/16 13:19:43;;;;;;;8.60;3.03;;;;;;;;;;5116663;27;20047;-73